createdAt,value
2016-02-18T00:00:33.951Z,989.98
2016-02-18T00:01:33.953Z,990.01
2016-02-18T00:02:33.941Z,990.01
2016-02-18T00:03:33.943Z,990.03
2016-02-18T00:04:33.935Z,990.02
2016-02-18T00:05:33.937Z,990.03
2016-02-18T00:06:33.924Z,990.06
2016-02-18T00:07:33.927Z,990.02
2016-02-18T00:08:33.914Z,990.07
2016-02-18T00:09:33.917Z,990.02
2016-02-18T00:10:33.904Z,990.03
2016-02-18T00:11:33.907Z,990.04
2016-02-18T00:12:33.909Z,990.05
2016-02-18T00:13:33.911Z,990.05
2016-02-18T00:14:33.884Z,990.02
2016-02-18T00:15:33.886Z,990
2016-02-18T00:16:33.889Z,989.99
2016-02-18T00:17:33.876Z,990.02
2016-02-18T00:18:33.878Z,989.98
2016-02-18T00:19:33.865Z,990
2016-02-18T00:20:33.869Z,990
2016-02-18T00:21:33.855Z,990.02
2016-02-18T00:22:33.874Z,989.99
2016-02-18T00:23:33.860Z,989.99
2016-02-18T00:24:33.847Z,989.98
2016-02-18T00:25:33.850Z,989.97
2016-02-18T00:26:33.852Z,989.96
2016-02-18T00:27:33.840Z,989.94
2016-02-18T00:28:33.827Z,989.98
2016-02-18T00:29:33.829Z,989.98
2016-02-18T00:30:33.817Z,990.01
2016-02-18T00:31:33.819Z,989.99
2016-02-18T00:32:33.822Z,989.96
2016-02-18T00:33:33.809Z,989.95
2016-02-18T00:34:33.812Z,990
2016-02-18T00:35:33.799Z,989.99
2016-02-18T00:36:33.806Z,989.98
2016-02-18T00:37:33.793Z,989.99
2016-02-18T00:38:33.796Z,989.97
2016-02-18T00:39:33.798Z,989.93
2016-02-18T00:40:33.786Z,989.94
2016-02-18T00:41:33.773Z,989.9
2016-02-18T00:42:33.775Z,989.92
2016-02-18T00:43:33.779Z,989.93
2016-02-18T00:44:33.766Z,989.92
2016-02-18T00:45:33.784Z,989.91
2016-02-18T00:46:33.771Z,989.93
2016-02-18T00:47:33.774Z,989.91
2016-02-18T00:48:33.761Z,989.94
2016-02-18T00:49:33.763Z,989.95
2016-02-18T00:50:33.750Z,989.96
2016-02-18T00:51:33.752Z,989.97
2016-02-18T00:52:33.740Z,990
2016-02-18T00:53:33.744Z,989.99
2016-02-18T00:54:33.730Z,989.99
2016-02-18T00:55:33.733Z,989.96
2016-02-18T00:56:33.735Z,989.99
2016-02-18T00:57:33.722Z,989.97
2016-02-18T00:58:33.724Z,989.96
2016-02-18T00:59:33.727Z,989.97
2016-02-18T01:00:33.715Z,989.96
2016-02-18T01:01:33.718Z,990.02
2016-02-18T01:02:33.704Z,990
2016-02-18T01:03:33.708Z,990.02
2016-02-18T01:04:33.710Z,989.97
2016-02-18T01:05:33.698Z,990.03
2016-02-18T01:06:33.700Z,990.03
2016-02-18T01:07:33.692Z,990.09
2016-02-18T01:08:33.695Z,990.09
2016-02-18T01:09:33.681Z,990.06
2016-02-18T01:10:33.684Z,990.12
2016-02-18T01:11:33.672Z,990.1
2016-02-18T01:12:33.674Z,990.06
2016-02-18T01:13:33.677Z,990.07
2016-02-18T01:14:33.664Z,990.06
2016-02-18T01:15:33.666Z,990.07
2016-02-18T01:16:33.653Z,990.01
2016-02-18T01:17:33.656Z,990.01
2016-02-18T01:18:33.644Z,990.04
2016-02-18T01:19:33.646Z,990.01
2016-02-18T01:20:33.649Z,989.97
2016-02-18T01:21:33.636Z,989.99
2016-02-18T01:22:33.638Z,989.93
2016-02-18T01:23:33.625Z,990
2016-02-18T01:24:33.628Z,990.03
2016-02-18T01:25:33.630Z,989.98
2016-02-18T01:26:33.617Z,989.94
2016-02-18T01:27:33.620Z,989.94
2016-02-18T01:28:33.623Z,989.93
2016-02-18T01:29:33.610Z,989.94
2016-02-18T01:30:33.598Z,989.93
2016-02-18T01:31:33.600Z,989.93
2016-02-18T01:32:33.603Z,989.92
2016-02-18T01:33:33.589Z,989.92
2016-02-18T01:34:33.593Z,989.98
2016-02-18T01:35:33.579Z,989.94
2016-02-18T01:36:33.581Z,989.93
2016-02-18T01:37:33.584Z,989.91
2016-02-18T01:38:33.572Z,989.9
2016-02-18T01:39:33.575Z,989.87
2016-02-18T01:40:33.578Z,989.85
2016-02-18T01:41:33.564Z,989.84
2016-02-18T01:42:33.567Z,989.86
2016-02-18T01:43:33.569Z,989.83
2016-02-18T01:44:33.557Z,989.82
2016-02-18T01:45:33.544Z,989.78
2016-02-18T01:46:33.546Z,989.79
2016-02-18T01:47:33.533Z,989.73
2016-02-18T01:48:33.536Z,989.7
2016-02-18T01:49:33.539Z,989.68
2016-02-18T01:50:33.527Z,989.64
2016-02-18T01:51:33.529Z,989.69
2016-02-18T01:52:33.532Z,989.71
2016-02-18T01:53:33.518Z,989.75
2016-02-18T01:54:33.522Z,989.65
2016-02-18T01:55:33.524Z,989.66
2016-02-18T01:56:33.526Z,989.6
2016-02-18T01:57:33.498Z,989.61
2016-02-18T01:58:33.501Z,989.6
2016-02-18T01:59:33.487Z,989.62
2016-02-18T02:00:33.490Z,989.6
2016-02-18T02:01:33.491Z,989.59
2016-02-18T02:02:33.465Z,989.57
2016-02-18T02:03:33.455Z,989.61
2016-02-18T02:04:33.429Z,989.57
2016-02-18T02:05:33.420Z,989.59
2016-02-18T02:06:33.395Z,989.63
2016-02-18T02:07:33.394Z,989.64
2016-02-18T02:08:33.377Z,989.64
2016-02-18T02:09:33.374Z,989.6
2016-02-18T02:10:33.373Z,989.57
2016-02-18T02:11:33.355Z,989.59
2016-02-18T02:12:33.356Z,989.53
2016-02-18T02:13:33.358Z,989.55
2016-02-18T02:14:33.343Z,989.53
2016-02-18T02:15:33.344Z,989.49
2016-02-18T02:16:33.331Z,989.49
2016-02-18T02:17:33.332Z,989.47
2016-02-18T02:18:33.319Z,989.45
2016-02-18T02:19:33.320Z,989.48
2016-02-18T02:20:33.322Z,989.45
2016-02-18T02:21:33.324Z,989.43
2016-02-18T02:22:33.311Z,989.46
2016-02-18T02:23:33.299Z,989.48
2016-02-18T02:24:33.301Z,989.46
2016-02-18T02:25:33.304Z,989.46
2016-02-18T02:26:33.291Z,989.5
2016-02-18T02:27:33.293Z,989.48
2016-02-18T02:28:33.281Z,989.48
2016-02-18T02:29:33.284Z,989.48
2016-02-18T02:30:33.270Z,989.46
2016-02-18T02:31:33.273Z,989.47
2016-02-18T02:32:33.260Z,989.43
2016-02-18T02:33:33.278Z,989.39
2016-02-18T02:34:33.266Z,989.4
2016-02-18T02:35:33.253Z,989.39
2016-02-18T02:36:33.256Z,989.37
2016-02-18T02:37:33.242Z,989.36
2016-02-18T02:38:33.245Z,989.43
2016-02-18T02:39:33.248Z,989.47
2016-02-18T02:40:33.235Z,989.42
2016-02-18T02:41:33.237Z,989.39
2016-02-18T02:42:33.225Z,989.42
2016-02-18T02:43:33.227Z,989.42
2016-02-18T02:44:33.214Z,989.37
2016-02-18T02:45:33.217Z,989.39
2016-02-18T02:46:33.204Z,989.37
2016-02-18T02:47:33.207Z,989.38
2016-02-18T02:48:33.210Z,989.31
2016-02-18T02:49:33.197Z,989.33
2016-02-18T02:50:33.199Z,989.33
2016-02-18T02:51:33.186Z,989.33
2016-02-18T02:52:33.188Z,989.33
2016-02-18T02:53:33.176Z,989.31
2016-02-18T02:54:33.179Z,989.34
2016-02-18T02:55:33.166Z,989.3
2016-02-18T02:56:33.169Z,989.35
2016-02-18T02:57:33.171Z,989.31
2016-02-18T02:58:33.158Z,989.36
2016-02-18T02:59:33.161Z,989.32
2016-02-18T03:00:33.149Z,989.34
2016-02-18T03:01:33.151Z,989.35
2016-02-18T03:02:33.138Z,989.37
2016-02-18T03:03:33.141Z,989.37
2016-02-18T03:04:33.128Z,989.34
2016-02-18T03:05:33.131Z,989.36
2016-02-18T03:06:33.134Z,989.34
2016-02-18T03:07:33.121Z,989.34
2016-02-18T03:08:33.123Z,989.33
2016-02-18T03:09:33.126Z,989.35
2016-02-18T03:10:33.113Z,989.37
2016-02-18T03:11:33.115Z,989.37
2016-02-18T03:12:33.102Z,989.33
2016-02-18T03:13:33.105Z,989.35
2016-02-18T03:14:33.092Z,989.36
2016-02-18T03:15:33.095Z,989.37
2016-02-18T03:16:33.081Z,989.39
2016-02-18T03:17:33.084Z,989.36
2016-02-18T03:18:33.071Z,989.34
2016-02-18T03:19:33.089Z,989.36
2016-02-18T03:20:45.811Z,989.31
2016-02-18T03:21:33.061Z,989.37
2016-02-18T03:22:33.064Z,989.34
2016-02-18T03:23:33.052Z,989.31
2016-02-18T03:24:33.054Z,989.31
2016-02-18T03:25:33.041Z,989.3
2016-02-18T03:26:33.044Z,989.31
2016-02-18T03:27:33.030Z,989.32
2016-02-18T03:28:33.033Z,989.28
2016-02-18T03:29:33.021Z,989.26
2016-02-18T03:30:33.024Z,989.24
2016-02-18T03:31:33.011Z,989.21
2016-02-18T03:32:33.013Z,989.21
2016-02-18T03:33:33.016Z,989.17
2016-02-18T03:34:33.003Z,989.21
2016-02-18T03:35:33.005Z,989.19
2016-02-18T03:36:32.993Z,989.19
2016-02-18T03:37:32.996Z,989.21
2016-02-18T03:38:32.982Z,989.25
2016-02-18T03:39:32.985Z,989.16
2016-02-18T03:40:32.973Z,989.21
2016-02-18T03:41:32.976Z,989.27
2016-02-18T03:42:32.978Z,989.24
2016-02-18T03:43:32.965Z,989.23
2016-02-18T03:44:32.967Z,989.28
2016-02-18T03:45:32.954Z,989.28
2016-02-18T03:46:32.957Z,989.34
2016-02-18T03:47:32.945Z,989.29
2016-02-18T03:48:32.947Z,989.24
2016-02-18T03:49:32.950Z,989.16
2016-02-18T03:50:32.936Z,989.19
2016-02-18T03:51:32.923Z,989.2
2016-02-18T03:52:32.925Z,989.17
2016-02-18T03:53:32.929Z,989.18
2016-02-18T03:54:32.916Z,989.2
2016-02-18T03:55:32.919Z,989.18
2016-02-18T03:56:32.922Z,989.16
2016-02-18T03:57:32.908Z,989.2
2016-02-18T03:58:32.911Z,989.15
2016-02-18T03:59:32.913Z,989.08
2016-02-18T04:00:32.901Z,989.11
2016-02-18T04:01:32.888Z,989.16
2016-02-18T04:02:32.890Z,989.16
2016-02-18T04:03:32.893Z,989.16
2016-02-18T04:04:32.928Z,989.17
2016-02-18T04:05:32.868Z,989.1
2016-02-18T04:06:32.871Z,989.14
2016-02-18T04:07:32.874Z,989.11
2016-02-18T04:08:32.861Z,989.09
2016-02-18T04:09:32.863Z,989.1
2016-02-18T04:10:32.866Z,989.08
2016-02-18T04:11:32.869Z,989.02
2016-02-18T04:12:32.856Z,989.06
2016-02-18T04:13:32.843Z,989.1
2016-02-18T04:14:32.846Z,989.1
2016-02-18T04:15:32.832Z,989.17
2016-02-18T04:16:32.835Z,989.12
2016-02-18T04:17:32.822Z,989.13
2016-02-18T04:18:32.826Z,989.11
2016-02-18T04:19:32.829Z,989.12
2016-02-18T04:20:32.815Z,989.1
2016-02-18T04:21:32.818Z,989.15
2016-02-18T04:22:32.804Z,989.11
2016-02-18T04:23:32.807Z,989.15
2016-02-18T04:24:32.809Z,989.15
2016-02-18T04:25:32.797Z,989.16
2016-02-18T04:26:32.800Z,989.2
2016-02-18T04:27:32.787Z,989.18
2016-02-18T04:28:32.790Z,989.26
2016-02-18T04:29:32.792Z,989.18
2016-02-18T04:30:32.779Z,989.25
2016-02-18T04:31:32.781Z,989.2
2016-02-18T04:32:32.784Z,989.16
2016-02-18T04:33:32.771Z,989.12
2016-02-18T04:34:32.775Z,989.16
2016-02-18T04:35:32.762Z,989.17
2016-02-18T04:36:32.764Z,989.12
2016-02-18T04:37:32.767Z,989.13
2016-02-18T04:38:32.754Z,989.15
2016-02-18T04:39:32.757Z,989.16
2016-02-18T04:40:32.743Z,989.14
2016-02-18T04:41:32.746Z,989.11
2016-02-18T04:42:32.734Z,989.14
2016-02-18T04:43:32.735Z,989.16
2016-02-18T04:44:32.739Z,989.17
2016-02-18T04:45:32.742Z,989.17
2016-02-18T04:46:32.729Z,989.17
2016-02-18T04:47:32.731Z,989.2
2016-02-18T04:48:32.718Z,989.21
2016-02-18T04:49:32.721Z,989.22
2016-02-18T04:50:32.707Z,989.17
2016-02-18T04:51:32.710Z,989.19
2016-02-18T04:52:32.713Z,989.18
2016-02-18T04:53:32.701Z,989.16
2016-02-18T04:54:32.704Z,989.16
2016-02-18T04:55:32.690Z,989.2
2016-02-18T04:56:32.693Z,989.18
2016-02-18T04:57:32.695Z,989.21
2016-02-18T04:58:32.683Z,989.26
2016-02-18T04:59:32.685Z,989.25
2016-02-18T05:00:32.672Z,989.22
2016-02-18T05:01:32.676Z,989.19
2016-02-18T05:02:32.678Z,989.19
2016-02-18T05:03:32.681Z,989.22
2016-02-18T05:04:32.668Z,989.15
2016-02-18T05:05:33.048Z,989.19
2016-02-18T05:06:32.661Z,989.17
2016-02-18T05:07:32.647Z,989.2
2016-02-18T05:08:32.649Z,989.17
2016-02-18T05:09:32.652Z,989.21
2016-02-18T05:10:32.640Z,989.22
2016-02-18T05:11:32.642Z,989.2
2016-02-18T05:12:32.645Z,989.2
2016-02-18T05:13:32.633Z,989.26
2016-02-18T05:14:32.624Z,989.24
2016-02-18T05:15:32.627Z,989.25
2016-02-18T05:16:32.629Z,989.26
2016-02-18T05:17:32.616Z,989.26
2016-02-18T05:18:32.618Z,989.26
2016-02-18T05:19:32.622Z,989.28
2016-02-18T05:20:32.610Z,989.27
2016-02-18T05:21:32.612Z,989.31
2016-02-18T05:22:32.615Z,989.32
2016-02-18T05:23:32.601Z,989.34
2016-02-18T05:24:32.604Z,989.36
2016-02-18T05:25:32.606Z,989.36
2016-02-18T05:26:32.594Z,989.34
2016-02-18T05:27:32.597Z,989.31
2016-02-18T05:28:32.600Z,989.28
2016-02-18T05:29:32.587Z,989.28
2016-02-18T05:30:32.589Z,989.33
2016-02-18T05:31:32.592Z,989.3
2016-02-18T05:32:32.578Z,989.33
2016-02-18T05:33:32.581Z,989.3
2016-02-18T05:34:32.568Z,989.29
2016-02-18T05:35:32.571Z,989.28
2016-02-18T05:36:32.575Z,989.3
2016-02-18T05:37:32.577Z,989.28
2016-02-18T05:38:32.564Z,989.32
2016-02-18T05:39:32.566Z,989.3
2016-02-18T05:40:32.553Z,989.32
2016-02-18T05:41:32.572Z,989.33
2016-02-18T05:42:32.558Z,989.29
2016-02-18T05:43:32.546Z,989.29
2016-02-18T05:44:32.548Z,989.33
2016-02-18T05:45:32.551Z,989.36
2016-02-18T05:46:32.539Z,989.34
2016-02-18T05:47:32.541Z,989.37
2016-02-18T05:48:32.544Z,989.32
2016-02-18T05:49:32.531Z,989.38
2016-02-18T05:50:32.534Z,989.42
2016-02-18T05:51:32.520Z,989.31
2016-02-18T05:52:32.539Z,989.39
2016-02-18T05:53:32.526Z,989.37
2016-02-18T05:54:32.513Z,989.41
2016-02-18T05:55:32.516Z,989.42
2016-02-18T05:56:32.518Z,989.42
2016-02-18T05:57:32.506Z,989.5
2016-02-18T05:58:32.508Z,989.48
2016-02-18T05:59:32.511Z,989.45
2016-02-18T06:00:32.529Z,989.47
2016-02-18T06:01:32.531Z,989.47
2016-02-18T06:02:32.520Z,989.45
2016-02-18T06:03:32.522Z,989.4
2016-02-18T06:04:32.493Z,989.37
2016-02-18T06:05:32.515Z,989.4
2016-02-18T06:06:32.502Z,989.41
2016-02-18T06:07:32.474Z,989.45
2016-02-18T06:08:32.476Z,989.46
2016-02-18T06:09:32.479Z,989.46
2016-02-18T06:10:32.465Z,989.52
2016-02-18T06:11:32.468Z,989.5
2016-02-18T06:12:32.472Z,989.49
2016-02-18T06:13:32.474Z,989.41
2016-02-18T06:14:32.462Z,989.42
2016-02-18T06:15:32.464Z,989.42
2016-02-18T06:16:32.467Z,989.42
2016-02-18T06:17:32.453Z,989.45
2016-02-18T06:18:32.456Z,989.48
2016-02-18T06:19:32.475Z,989.48
2016-02-18T06:20:32.447Z,989.48
2016-02-18T06:21:32.450Z,989.48
2016-02-18T06:22:32.436Z,989.48
2016-02-18T06:23:32.439Z,989.54
2016-02-18T06:24:32.441Z,989.52
2016-02-18T06:25:32.428Z,989.52
2016-02-18T06:26:32.430Z,989.57
2016-02-18T06:27:32.433Z,989.58
2016-02-18T06:28:32.422Z,989.58
2016-02-18T06:29:32.424Z,989.55
2016-02-18T06:30:32.411Z,989.59
2016-02-18T06:31:32.413Z,989.58
2016-02-18T06:32:32.416Z,989.55
2016-02-18T06:33:32.402Z,989.58
2016-02-18T06:34:32.438Z,989.61
2016-02-18T06:35:32.393Z,989.64
2016-02-18T06:36:32.396Z,989.65
2016-02-18T06:37:32.399Z,989.6
2016-02-18T06:38:32.386Z,989.63
2016-02-18T06:39:32.388Z,989.66
2016-02-18T06:40:32.391Z,989.64
2016-02-18T06:41:32.379Z,989.67
2016-02-18T06:42:32.381Z,989.64
2016-02-18T06:43:32.384Z,989.64
2016-02-18T06:44:32.370Z,989.66
2016-02-18T06:45:32.373Z,989.64
2016-02-18T06:46:32.375Z,989.66
2016-02-18T06:47:32.363Z,989.64
2016-02-18T06:48:32.365Z,989.7
2016-02-18T06:49:32.353Z,989.66
2016-02-18T06:50:32.355Z,989.68
2016-02-18T06:51:32.373Z,989.74
2016-02-18T06:52:32.345Z,989.7
2016-02-18T06:53:32.347Z,989.74
2016-02-18T06:54:32.350Z,989.73
2016-02-18T06:55:32.337Z,989.72
2016-02-18T06:56:32.340Z,989.77
2016-02-18T06:57:32.342Z,989.81
2016-02-18T06:58:32.330Z,989.78
2016-02-18T06:59:32.333Z,989.77
2016-02-18T07:00:32.319Z,989.81
2016-02-18T07:01:32.322Z,989.84
2016-02-18T07:02:32.324Z,989.85
2016-02-18T07:03:32.328Z,989.85
2016-02-18T07:04:32.315Z,989.85
2016-02-18T07:05:32.318Z,989.84
2016-02-18T07:06:32.320Z,989.86
2016-02-18T07:07:32.307Z,989.87
2016-02-18T07:08:32.310Z,989.9
2016-02-18T07:09:32.296Z,989.88
2016-02-18T07:10:32.299Z,989.9
2016-02-18T07:11:32.302Z,989.94
2016-02-18T07:12:32.290Z,989.88
2016-02-18T07:13:32.292Z,989.89
2016-02-18T07:14:32.279Z,989.89
2016-02-18T07:15:32.282Z,989.87
2016-02-18T07:16:32.284Z,989.9
2016-02-18T07:17:32.475Z,989.93
2016-02-18T07:18:32.273Z,989.96
2016-02-18T07:19:32.276Z,989.96
2016-02-18T07:20:32.279Z,989.94
2016-02-18T07:21:32.297Z,989.96
2016-02-18T07:22:32.301Z,989.99
2016-02-18T07:23:32.256Z,990.02
2016-02-18T07:24:32.259Z,990.04
2016-02-18T07:25:32.262Z,990.03
2016-02-18T07:26:32.249Z,990.03
2016-02-18T07:27:32.252Z,990.01
2016-02-18T07:28:32.238Z,989.96
2016-02-18T07:29:32.241Z,990
2016-02-18T07:30:32.244Z,989.97
2016-02-18T07:31:32.230Z,989.96
2016-02-18T07:32:32.233Z,989.98
2016-02-18T07:33:32.236Z,989.97
2016-02-18T07:34:32.238Z,989.99
2016-02-18T07:35:32.226Z,990.03
2016-02-18T07:36:32.229Z,990.09
2016-02-18T07:37:32.215Z,990.09
2016-02-18T07:38:32.219Z,990.09
2016-02-18T07:39:32.205Z,990.1
2016-02-18T07:40:32.208Z,990.09
2016-02-18T07:41:32.211Z,990.02
2016-02-18T07:42:32.198Z,990.09
2016-02-18T07:43:32.216Z,990.07
2016-02-18T07:44:32.204Z,990.09
2016-02-18T07:45:32.190Z,990.1
2016-02-18T07:46:32.193Z,990.1
2016-02-18T07:47:32.195Z,990.09
2016-02-18T07:48:32.183Z,990.14
2016-02-18T07:49:32.202Z,990.12
2016-02-18T07:50:32.189Z,990.11
2016-02-18T07:51:32.192Z,990.11
2016-02-18T07:52:32.178Z,990.12
2016-02-18T07:53:32.181Z,990.13
2016-02-18T07:54:32.183Z,990.15
2016-02-18T07:55:32.170Z,990.13
2016-02-18T07:56:32.172Z,990.11
2016-02-18T07:57:32.176Z,990.13
2016-02-18T07:58:32.164Z,990.12
2016-02-18T07:59:32.166Z,990.12
2016-02-18T08:00:32.169Z,990.19
2016-02-18T08:01:32.155Z,990.11
2016-02-18T08:02:32.158Z,990.12
2016-02-18T08:03:32.160Z,990.1
2016-02-18T08:04:32.163Z,990.08
2016-02-18T08:05:32.167Z,990.1
2016-02-18T08:06:32.168Z,990.05
2016-02-18T08:07:32.171Z,990.03
2016-02-18T08:08:32.159Z,990.03
2016-02-18T08:09:32.161Z,990.01
2016-02-18T08:10:32.164Z,990.03
2016-02-18T08:11:32.166Z,990
2016-02-18T08:12:32.169Z,989.99
2016-02-18T08:13:32.171Z,990
2016-02-18T08:14:32.174Z,990
2016-02-18T08:15:32.162Z,990.01
2016-02-18T08:16:32.165Z,989.97
2016-02-18T08:17:32.167Z,989.97
2016-02-18T08:18:32.170Z,989.99
2016-02-18T08:19:32.173Z,990.02
2016-02-18T08:20:32.176Z,989.98
2016-02-18T08:21:32.178Z,990
2016-02-18T08:22:32.181Z,990
2016-02-18T08:23:32.184Z,990.01
2016-02-18T08:24:32.186Z,990.05
2016-02-18T08:25:32.188Z,990.01
2016-02-18T08:26:32.191Z,990.04
2016-02-18T08:27:32.194Z,990.04
2016-02-18T08:28:32.197Z,990.05
2016-02-18T08:29:32.199Z,990.09
2016-02-18T08:30:32.203Z,990.08
2016-02-18T08:31:32.205Z,990.05
2016-02-18T08:32:32.208Z,990.03
2016-02-18T08:33:32.211Z,990.06
2016-02-18T08:34:32.213Z,990.02
2016-02-18T08:35:32.216Z,990.07
2016-02-18T08:36:32.219Z,990.09
2016-02-18T08:37:32.221Z,990.09
2016-02-18T08:38:32.239Z,990.12
2016-02-18T08:39:32.226Z,990.12
2016-02-18T08:40:32.229Z,990.11
2016-02-18T08:41:32.232Z,990.13
2016-02-18T08:42:32.234Z,990.12
2016-02-18T08:43:32.237Z,990.13
2016-02-18T08:44:32.255Z,990.11
2016-02-18T08:45:32.258Z,990.14
2016-02-18T08:46:32.261Z,990.12
2016-02-18T08:47:32.263Z,990.13
2016-02-18T08:48:32.266Z,990.13
2016-02-18T08:49:32.268Z,990.13
2016-02-18T08:50:32.287Z,990.09
2016-02-18T08:51:32.290Z,990.11
2016-02-18T08:52:32.276Z,990.05
2016-02-18T08:53:32.279Z,990.06
2016-02-18T08:54:32.281Z,990.07
2016-02-18T08:55:32.284Z,990.07
2016-02-18T08:56:32.288Z,990.08
2016-02-18T08:57:32.290Z,990.11
2016-02-18T08:58:32.293Z,990.1
2016-02-18T08:59:32.296Z,990.06
2016-02-18T09:00:32.298Z,990.11
2016-02-18T09:01:32.301Z,990.12
2016-02-18T09:02:32.289Z,990.12
2016-02-18T09:03:32.306Z,990.1
2016-02-18T09:04:32.294Z,990.09
2016-02-18T09:05:32.296Z,990.12
2016-02-18T09:06:32.300Z,990.14
2016-02-18T09:07:32.302Z,990.11
2016-02-18T09:08:32.305Z,990.1
2016-02-18T09:09:32.308Z,990.12
2016-02-18T09:10:32.294Z,990.07
2016-02-18T09:11:32.312Z,990.09
2016-02-18T09:12:32.299Z,990.1
2016-02-18T09:13:32.302Z,990.09
2016-02-18T09:14:32.290Z,990.17
2016-02-18T09:15:32.292Z,990.16
2016-02-18T09:16:32.295Z,990.14
2016-02-18T09:17:32.298Z,990.14
2016-02-18T09:18:32.301Z,990.16
2016-02-18T09:19:32.303Z,990.16
2016-02-18T09:20:32.306Z,990.16
2016-02-18T09:21:32.309Z,990.12
2016-02-18T09:22:32.311Z,990.11
2016-02-18T09:23:32.314Z,990.08
2016-02-18T09:24:32.317Z,990.1
2016-02-18T09:25:32.287Z,990.08
2016-02-18T09:26:32.306Z,990.12
2016-02-18T09:27:32.308Z,990.07
2016-02-18T09:28:32.296Z,990.08
2016-02-18T09:29:32.298Z,990.07
2016-02-18T09:30:32.301Z,990.15
2016-02-18T09:31:32.289Z,990.17
2016-02-18T09:32:32.291Z,990.15
2016-02-18T09:33:32.294Z,990.15
2016-02-18T09:34:32.297Z,990.19
2016-02-18T09:35:32.299Z,990.2
2016-02-18T09:36:32.302Z,990.18
2016-02-18T09:37:32.288Z,990.22
2016-02-18T09:38:32.291Z,990.2
2016-02-18T09:39:32.294Z,990.19
2016-02-18T09:40:32.297Z,990.22
2016-02-18T09:41:32.300Z,990.16
2016-02-18T09:42:32.302Z,990.2
2016-02-18T09:43:32.305Z,990.17
2016-02-18T09:44:32.292Z,990.2
2016-02-18T09:45:32.294Z,990.21
2016-02-18T09:46:32.297Z,990.23
2016-02-18T09:47:32.299Z,990.27
2016-02-18T09:48:32.302Z,990.21
2016-02-18T09:49:32.304Z,990.24
2016-02-18T09:50:32.308Z,990.19
2016-02-18T09:51:32.296Z,990.18
2016-02-18T09:52:32.298Z,990.19
2016-02-18T09:53:32.301Z,990.15
2016-02-18T09:54:32.304Z,990.19
2016-02-18T09:55:32.306Z,990.08
2016-02-18T09:56:32.309Z,990.13
2016-02-18T09:57:32.311Z,990.17
2016-02-18T09:58:32.314Z,990.12
2016-02-18T09:59:32.316Z,990.1
2016-02-18T10:00:32.303Z,990.07
2016-02-18T10:01:32.307Z,990.14
2016-02-18T10:02:32.309Z,990.12
2016-02-18T10:03:32.312Z,990.08
2016-02-18T10:04:32.314Z,990.07
2016-02-18T10:05:32.317Z,990.12
2016-02-18T10:06:32.319Z,990.09
2016-02-18T10:07:32.322Z,990.05
2016-02-18T10:08:32.325Z,989.97
2016-02-18T10:09:32.312Z,990
2016-02-18T10:10:32.315Z,989.95
2016-02-18T10:11:32.318Z,989.97
2016-02-18T10:12:32.321Z,990
2016-02-18T10:13:32.324Z,989.96
2016-02-18T10:14:32.326Z,990.02
2016-02-18T10:15:32.329Z,990.04
2016-02-18T10:16:32.315Z,990.06
2016-02-18T10:17:32.318Z,990.1
2016-02-18T10:18:32.337Z,990.1
2016-02-18T10:19:32.324Z,990.11
2016-02-18T10:20:32.327Z,990.12
2016-02-18T10:21:32.329Z,990.06
2016-02-18T10:22:32.331Z,990.11
2016-02-18T10:23:32.319Z,990.05
2016-02-18T10:24:32.337Z,990.05
2016-02-18T10:25:32.340Z,990.1
2016-02-18T10:26:32.326Z,990.06
2016-02-18T10:27:32.329Z,990.01
2016-02-18T10:28:32.332Z,990.01
2016-02-18T10:29:32.334Z,990
2016-02-18T10:30:32.337Z,990.02
2016-02-18T10:31:32.340Z,990
2016-02-18T10:32:32.328Z,990.01
2016-02-18T10:33:32.330Z,989.97
2016-02-18T10:34:32.333Z,989.89
2016-02-18T10:35:32.336Z,989.96
2016-02-18T10:36:32.339Z,989.94
2016-02-18T10:37:32.341Z,989.96
2016-02-18T10:38:32.344Z,989.91
2016-02-18T10:39:32.346Z,989.89
2016-02-18T10:40:32.333Z,989.89
2016-02-18T10:41:32.335Z,989.88
2016-02-18T10:42:32.339Z,989.91
2016-02-18T10:43:32.341Z,989.88
2016-02-18T10:44:32.344Z,989.9
2016-02-18T10:45:32.347Z,989.91
2016-02-18T10:46:32.349Z,989.94
2016-02-18T10:47:32.352Z,989.91
2016-02-18T10:48:32.354Z,989.83
2016-02-18T10:49:32.357Z,989.87
2016-02-18T10:50:32.360Z,989.84
2016-02-18T10:51:32.346Z,989.83
2016-02-18T10:52:32.365Z,989.82
2016-02-18T10:53:32.368Z,989.83
2016-02-18T10:54:32.371Z,989.82
2016-02-18T10:55:32.374Z,989.83
2016-02-18T10:56:32.360Z,989.8
2016-02-18T10:57:32.363Z,989.77
2016-02-18T10:58:32.365Z,989.74
2016-02-18T10:59:32.368Z,989.74
2016-02-18T11:00:32.370Z,989.74
2016-02-18T11:01:32.374Z,989.79
2016-02-18T11:02:32.377Z,989.79
2016-02-18T11:03:32.379Z,989.74
2016-02-18T11:04:32.367Z,989.75
2016-02-18T11:05:32.370Z,989.74
2016-02-18T11:06:32.372Z,989.73
2016-02-18T11:07:32.375Z,989.72
2016-02-18T11:08:32.368Z,989.72
2016-02-18T11:09:32.359Z,989.74
2016-02-18T11:10:32.349Z,989.76
2016-02-18T11:11:32.324Z,989.73
2016-02-18T11:12:32.316Z,989.77
2016-02-18T11:13:32.328Z,989.78
2016-02-18T11:14:32.311Z,989.71
2016-02-18T11:15:32.309Z,989.73
2016-02-18T11:16:32.307Z,989.66
2016-02-18T11:17:32.306Z,989.65
2016-02-18T11:18:32.307Z,989.6
2016-02-18T11:19:32.307Z,989.66
2016-02-18T11:20:32.308Z,989.61
2016-02-18T11:21:32.310Z,989.59
2016-02-18T11:22:32.296Z,989.57
2016-02-18T11:23:32.298Z,989.52
2016-02-18T11:24:32.299Z,989.52
2016-02-18T11:25:32.301Z,989.52
2016-02-18T11:26:32.304Z,989.52
2016-02-18T11:27:32.305Z,989.51
2016-02-18T11:28:32.308Z,989.53
2016-02-18T11:29:32.294Z,989.51
2016-02-18T11:30:32.312Z,989.47
2016-02-18T11:31:32.299Z,989.51
2016-02-18T11:32:32.301Z,989.44
2016-02-18T11:33:32.304Z,989.47
2016-02-18T11:34:32.306Z,989.5
2016-02-18T11:35:32.309Z,989.47
2016-02-18T11:36:32.311Z,989.48
2016-02-18T11:37:32.314Z,989.48
2016-02-18T11:38:32.317Z,989.41
2016-02-18T11:39:32.320Z,989.39
2016-02-18T11:40:32.323Z,989.41
2016-02-18T11:41:32.309Z,989.38
2016-02-18T11:42:32.312Z,989.38
2016-02-18T11:43:32.314Z,989.37
2016-02-18T11:44:32.317Z,989.36
2016-02-18T11:45:32.320Z,989.39
2016-02-18T11:46:32.322Z,989.36
2016-02-18T11:47:32.326Z,989.4
2016-02-18T11:48:32.328Z,989.36
2016-02-18T11:49:32.330Z,989.4
2016-02-18T11:50:32.334Z,989.37
2016-02-18T11:51:32.321Z,989.35
2016-02-18T11:52:32.371Z,989.31
2016-02-18T11:53:32.326Z,989.36
2016-02-18T11:54:32.329Z,989.32
2016-02-18T11:55:32.332Z,989.34
2016-02-18T11:56:32.334Z,989.4
2016-02-18T11:57:32.337Z,989.35
2016-02-18T11:58:32.340Z,989.35
2016-02-18T11:59:32.343Z,989.34
2016-02-18T12:00:32.345Z,989.34
2016-02-18T12:01:32.348Z,989.32
2016-02-18T12:02:32.350Z,989.33
2016-02-18T12:03:32.353Z,989.32
2016-02-18T12:04:32.356Z,989.24
2016-02-18T12:05:32.342Z,989.25
2016-02-18T12:06:32.346Z,989.23
2016-02-18T12:07:32.348Z,989.25
2016-02-18T12:08:32.351Z,989.24
2016-02-18T12:09:32.369Z,989.22
2016-02-18T12:10:32.356Z,989.25
2016-02-18T12:11:32.359Z,989.23
2016-02-18T12:12:32.362Z,989.25
2016-02-18T12:13:32.364Z,989.24
2016-02-18T12:14:32.367Z,989.21
2016-02-18T12:15:32.369Z,989.26
2016-02-18T12:16:32.372Z,989.24
2016-02-18T12:17:32.375Z,989.25
2016-02-18T12:18:32.378Z,989.28
2016-02-18T12:19:32.380Z,989.23
2016-02-18T12:20:32.383Z,989.22
2016-02-18T12:21:32.386Z,989.22
2016-02-18T12:22:32.372Z,989.2
2016-02-18T12:23:32.391Z,989.19
2016-02-18T12:24:32.377Z,989.2
2016-02-18T12:25:32.381Z,989.2
2016-02-18T12:26:32.399Z,989.29
2016-02-18T12:27:32.386Z,989.24
2016-02-18T12:28:32.405Z,989.25
2016-02-18T12:29:32.391Z,989.28
2016-02-18T12:30:32.410Z,989.23
2016-02-18T12:31:32.396Z,989.21
2016-02-18T12:32:32.415Z,989.18